createdAt,value
2023-04-11T00:03:00.613Z,98094.38
2023-04-11T00:06:03.713Z,98093.66
2023-04-11T00:09:06.393Z,98090.34
2023-04-11T00:12:09.208Z,98092.25
2023-04-11T00:15:12.235Z,98087.75
2023-04-11T00:18:15.039Z,98090.34
2023-04-11T00:21:17.902Z,98077.81
2023-04-11T00:24:20.696Z,98065.47
2023-04-11T00:27:23.293Z,98067.84
2023-04-11T00:30:25.990Z,98069.84
2023-04-11T00:33:28.659Z,98066.69
2023-04-11T00:36:32.239Z,98063.34
2023-04-11T00:39:35.588Z,98067.88
2023-04-11T00:42:39.688Z,98066.78
2023-04-11T00:45:42.950Z,98070.94
2023-04-11T00:48:46.446Z,98067.03
2023-04-11T00:51:49.368Z,98070.00
2023-04-11T00:54:52.209Z,98062.03
2023-04-11T00:57:55.769Z,98074.22
2023-04-11T01:00:58.542Z,98069.25
2023-04-11T01:04:01.652Z,98063.22
2023-04-11T01:07:07.491Z,98062.84
2023-04-11T01:10:11.093Z,98061.69
2023-04-11T01:13:16.154Z,98061.09
2023-04-11T01:16:21.958Z,98058.13
2023-04-11T01:19:26.872Z,98063.06
2023-04-11T01:22:30.713Z,98064.50
2023-04-11T01:25:33.550Z,98064.41
2023-04-11T01:28:36.253Z,98052.88
2023-04-11T01:31:40.195Z,98056.97
2023-04-11T01:34:43.319Z,98050.34
2023-04-11T01:37:46.364Z,98048.09
2023-04-11T01:40:49.241Z,98051.88
2023-04-11T01:43:52.136Z,98046.06
2023-04-11T01:46:54.892Z,98041.19
2023-04-11T01:49:58.120Z,98032.88
2023-04-11T01:53:00.858Z,98028.50
2023-04-11T01:56:06.030Z,98027.28
2023-04-11T01:59:08.697Z,98036.28
2023-04-11T02:02:12.042Z,98034.00
2023-04-11T02:05:14.899Z,98028.16
2023-04-11T02:08:17.586Z,98018.56
2023-04-11T02:11:20.321Z,98012.88
2023-04-11T02:14:25.672Z,98006.03
2023-04-11T02:17:31.590Z,98007.06
2023-04-11T02:20:37.085Z,97999.84
2023-04-11T02:23:39.843Z,98004.59
2023-04-11T02:26:42.948Z,98010.00
2023-04-11T02:29:45.727Z,98005.03
2023-04-11T02:32:49.705Z,97993.00
2023-04-11T02:35:52.767Z,97993.66
2023-04-11T02:38:57.387Z,97990.66
2023-04-11T02:42:03.042Z,97995.84
2023-04-11T02:45:06.205Z,97984.97
2023-04-11T02:48:09.006Z,97987.56
2023-04-11T02:51:17.630Z,97985.50
2023-04-11T02:54:20.732Z,97979.94
2023-04-11T02:57:23.696Z,97986.84
2023-04-11T03:00:26.570Z,97985.38
2023-04-11T03:03:39.375Z,97982.91
2023-04-11T03:06:42.655Z,97976.25
2023-04-11T03:09:45.611Z,97974.16
2023-04-11T03:12:48.317Z,97973.38
2023-04-11T03:15:51.577Z,97975.56
2023-04-11T03:18:55.266Z,97963.19
2023-04-11T03:22:00.706Z,97964.00
2023-04-11T03:25:03.755Z,97959.03
2023-04-11T03:28:07.225Z,97954.72
2023-04-11T03:31:10.038Z,97961.44
2023-04-11T03:34:12.722Z,97952.13
2023-04-11T03:37:16.869Z,97955.50
2023-04-11T03:40:19.985Z,97956.97
2023-04-11T03:43:29.281Z,97955.47
2023-04-11T03:46:34.954Z,97947.16
2023-04-11T03:49:38.347Z,97948.38
2023-04-11T03:52:41.127Z,97942.44
2023-04-11T03:55:49.551Z,97942.28
2023-04-11T03:58:54.975Z,97948.16
2023-04-11T04:02:01.648Z,97942.06
2023-04-11T04:05:06.506Z,97945.25
2023-04-11T04:08:12.402Z,97939.97
2023-04-11T04:11:25.386Z,97941.53
2023-04-11T04:14:30.886Z,97930.97
2023-04-11T04:17:34.286Z,97935.75
2023-04-11T04:20:40.215Z,97927.97
2023-04-11T04:23:47.891Z,97926.31
2023-04-11T04:27:10.919Z,97929.47
2023-04-11T04:30:22.279Z,97934.84
2023-04-11T04:33:38.768Z,97937.69
2023-04-11T04:36:49.688Z,97929.03
2023-04-11T04:40:09.946Z,97933.81
2023-04-11T04:43:23.471Z,97930.06
2023-04-11T04:46:37.531Z,97914.22
2023-04-11T04:49:43.165Z,97914.22
2023-04-11T04:52:46.820Z,97912.69
2023-04-11T04:55:49.600Z,97914.91
2023-04-11T04:58:55.156Z,97905.16
2023-04-11T05:01:58.257Z,97913.91
2023-04-11T05:05:05.305Z,97914.38
2023-04-11T05:08:09.845Z,97903.94
2023-04-11T05:11:14.539Z,97904.63
2023-04-11T05:14:17.793Z,97899.69
2023-04-11T05:17:22.194Z,97896.44
2023-04-11T05:20:29.972Z,97898.97
2023-04-11T05:23:34.159Z,97895.28
2023-04-11T05:26:39.434Z,97906.03
2023-04-11T05:29:42.986Z,97912.63
2023-04-11T05:32:48.163Z,97904.16
2023-04-11T05:35:53.134Z,97899.88
2023-04-11T05:38:56.015Z,97891.28
2023-04-11T05:41:58.756Z,97892.59
2023-04-11T05:45:01.658Z,97891.13
2023-04-11T05:48:04.751Z,97896.09
2023-04-11T05:51:08.529Z,97894.78
2023-04-11T05:54:11.336Z,97897.44
2023-04-11T05:57:14.100Z,97894.28
2023-04-11T06:00:17.695Z,97891.50
2023-04-11T06:03:20.609Z,97877.50
2023-04-11T06:06:24.520Z,97879.53
2023-04-11T06:09:27.334Z,97879.31
2023-04-11T06:12:30.171Z,97878.44
2023-04-11T06:15:33.100Z,97864.44
2023-04-11T06:18:36.010Z,97871.00
2023-04-11T06:21:39.139Z,97862.75
2023-04-11T06:24:42.213Z,97862.88
2023-04-11T06:27:45.208Z,97862.28
2023-04-11T06:30:48.013Z,97858.06
2023-04-11T06:33:50.819Z,97861.56
2023-04-11T06:36:53.859Z,97859.91
2023-04-11T06:39:56.913Z,97866.59
2023-04-11T06:43:01.367Z,97863.44
2023-04-11T06:46:04.399Z,97860.94
2023-04-11T06:49:10.913Z,97853.91
2023-04-11T06:52:13.748Z,97855.94
2023-04-11T06:55:17.066Z,97853.28
2023-04-11T06:58:19.700Z,97848.78
2023-04-11T07:01:25.845Z,97850.91
2023-04-11T07:04:28.892Z,97844.09
2023-04-11T07:07:31.832Z,97842.75
2023-04-11T07:10:34.512Z,97834.75
2023-04-11T07:13:37.494Z,97838.22
2023-04-11T07:16:40.737Z,97831.56
2023-04-11T07:19:43.763Z,97832.19
2023-04-11T07:22:46.733Z,97832.69
2023-04-11T07:25:49.495Z,97818.19
2023-04-11T07:28:52.294Z,97808.22
2023-04-11T07:31:55.367Z,97804.88
2023-04-11T07:34:58.181Z,97805.22
2023-04-11T07:38:01.646Z,97806.22
2023-04-11T07:41:05.599Z,97806.53
2023-04-11T07:44:11.269Z,97799.97
2023-04-11T07:47:14.110Z,97805.63
2023-04-11T07:50:17.508Z,97788.97
2023-04-11T07:53:21.343Z,97788.06
2023-04-11T07:56:24.422Z,97779.81
2023-04-11T07:59:27.324Z,97774.25
2023-04-11T08:02:30.281Z,97785.97
2023-04-11T08:05:34.434Z,97778.59
2023-04-11T08:08:37.246Z,97770.63
2023-04-11T08:11:40.200Z,97765.56
2023-04-11T08:14:43.331Z,97767.94
2023-04-11T08:17:46.922Z,97763.59
2023-04-11T08:20:49.778Z,97753.13
2023-04-11T08:23:52.733Z,97760.38
2023-04-11T08:26:55.875Z,97759.84
2023-04-11T08:29:59.545Z,97762.47
2023-04-11T08:33:02.435Z,97750.94
2023-04-11T08:36:10.502Z,97750.22
2023-04-11T08:39:14.001Z,97747.44
2023-04-11T08:42:33.689Z,97733.31
2023-04-11T08:45:36.764Z,97732.50
2023-04-11T08:48:39.686Z,97734.97
2023-04-11T08:51:44.391Z,97724.13
2023-04-11T08:54:55.380Z,97721.25
2023-04-11T08:58:00.157Z,97722.09
2023-04-11T09:01:33.902Z,97717.13
2023-04-11T09:04:41.995Z,97723.56
2023-04-11T09:07:50.986Z,97709.72
2023-04-11T09:11:02.054Z,97723.69
2023-04-11T09:14:12.199Z,97704.13
2023-04-11T09:17:17.464Z,97706.09
2023-04-11T09:20:21.666Z,97696.69
2023-04-11T09:23:26.727Z,97680.44
2023-04-11T09:26:32.627Z,97680.94
2023-04-11T09:29:39.503Z,97679.06
2023-04-11T09:32:43.155Z,97673.47
2023-04-11T09:35:48.856Z,97664.53
2023-04-11T09:38:54.523Z,97663.19
2023-04-11T09:41:57.771Z,97653.22
2023-04-11T09:45:00.861Z,97651.78
2023-04-11T09:48:04.248Z,97635.00
2023-04-11T09:51:07.746Z,97629.44
2023-04-11T09:54:12.512Z,97630.25
2023-04-11T09:57:15.444Z,97627.44
2023-04-11T10:00:22.464Z,97619.00
2023-04-11T10:03:26.795Z,97596.31
2023-04-11T10:07:09.611Z,97607.97
2023-04-11T10:10:20.405Z,97609.81
2023-04-11T10:13:35.566Z,97584.81
2023-04-11T10:17:21.239Z,97587.81
2023-04-11T10:20:46.604Z,97581.09
2023-04-11T10:24:14.781Z,97577.59
2023-04-11T10:28:05.180Z,97573.50
2023-04-11T10:31:10.541Z,97559.44
2023-04-11T10:34:14.770Z,97550.94
2023-04-11T10:37:36.557Z,97546.41
2023-04-11T10:41:18.352Z,97543.28
2023-04-11T10:44:21.806Z,97538.25
2023-04-11T10:47:26.820Z,97533.94
2023-04-11T10:50:38.523Z,97535.25
2023-04-11T10:53:42.173Z,97533.94
2023-04-11T10:56:47.380Z,97535.59
2023-04-11T10:59:52.042Z,97537.19
2023-04-11T11:02:58.048Z,97535.41
2023-04-11T11:06:09.961Z,97546.16
2023-04-11T11:09:26.751Z,97546.31
2023-04-11T11:12:29.956Z,97561.09
2023-04-11T11:15:37.982Z,97558.16
2023-04-11T11:18:41.332Z,97545.94
2023-04-11T11:21:45.195Z,97549.75
2023-04-11T11:24:48.590Z,97547.81
2023-04-11T11:27:59.927Z,97555.81
2023-04-11T11:31:04.358Z,97554.47
2023-04-11T11:34:22.911Z,97549.53
2023-04-11T11:37:27.391Z,97546.59
2023-04-11T11:40:30.399Z,97550.47
2023-04-11T11:43:36.850Z,97555.34
2023-04-11T11:46:39.745Z,97559.13
2023-04-11T11:49:49.580Z,97562.66
2023-04-11T11:52:53.072Z,97563.03
2023-04-11T11:55:57.116Z,97562.28
2023-04-11T11:59:05.325Z,97555.13
2023-04-11T12:02:09.144Z,97556.50
2023-04-11T12:05:12.621Z,97557.47
2023-04-11T12:08:15.682Z,97555.22
2023-04-11T12:11:18.931Z,97546.81
2023-04-11T12:14:24.858Z,97559.19
2023-04-11T12:17:37.643Z,97561.50
2023-04-11T12:20:41.306Z,97556.69
2023-04-11T12:23:44.186Z,97558.50
2023-04-11T12:27:05.799Z,97552.13
2023-04-11T12:30:12.025Z,97559.81
2023-04-11T12:33:14.917Z,97548.88
2023-04-11T12:36:18.019Z,97551.25
2023-04-11T12:39:20.762Z,97549.91
2023-04-11T12:42:26.706Z,97553.19
2023-04-11T12:45:30.316Z,97536.44
2023-04-11T12:48:33.725Z,97540.97
2023-04-11T12:51:36.978Z,97534.97
2023-04-11T12:54:40.161Z,97552.19
2023-04-11T12:57:44.189Z,97552.53
2023-04-11T13:00:47.101Z,97548.81
2023-04-11T13:03:50.022Z,97542.00
2023-04-11T13:06:53.056Z,97538.06
2023-04-11T13:09:56.255Z,97548.31
2023-04-11T13:13:05.352Z,97549.38
2023-04-11T13:16:15.127Z,97548.25
2023-04-11T13:19:18.047Z,97542.50
2023-04-11T13:22:23.348Z,97551.44
2023-04-11T13:25:26.460Z,97541.72
2023-04-11T13:28:30.174Z,97546.25
2023-04-11T13:31:33.273Z,97542.88
2023-04-11T13:34:37.430Z,97539.44
2023-04-11T13:37:40.527Z,97542.13
2023-04-11T13:40:43.670Z,97536.38
2023-04-11T13:43:47.162Z,97535.94
2023-04-11T13:46:50.163Z,97538.31
2023-04-11T13:49:53.071Z,97535.53
2023-04-11T13:52:57.432Z,97527.31
2023-04-11T13:56:00.742Z,97537.06
2023-04-11T13:59:03.695Z,97533.75
2023-04-11T14:02:06.603Z,97525.38
2023-04-11T14:05:11.111Z,97527.53
2023-04-11T14:08:14.235Z,97514.72
2023-04-11T14:11:16.919Z,97519.03
2023-04-11T14:14:19.769Z,97529.59
2023-04-11T14:17:23.280Z,97531.25
2023-04-11T14:20:26.387Z,97535.19
2023-04-11T14:23:29.984Z,97522.41
2023-04-11T14:26:33.206Z,97525.84
2023-04-11T14:29:38.068Z,97521.38
2023-04-11T14:32:41.576Z,97520.88
2023-04-11T14:35:47.399Z,97528.97
2023-04-11T14:38:50.367Z,97536.84
2023-04-11T14:41:53.930Z,97540.28
2023-04-11T14:44:57.080Z,97542.44
2023-04-11T14:48:00.148Z,97536.19
2023-04-11T14:51:03.836Z,97542.25
2023-04-11T14:54:07.076Z,97552.91
2023-04-11T14:57:10.294Z,97556.84
2023-04-11T15:00:20.418Z,97550.56
2023-04-11T15:03:23.752Z,97539.81
2023-04-11T15:06:27.245Z,97554.00
2023-04-11T15:09:30.406Z,97550.06
2023-04-11T15:12:33.357Z,97546.88
2023-04-11T15:15:37.004Z,97542.88
2023-04-11T15:18:41.091Z,97552.13
2023-04-11T15:21:46.746Z,97546.31
2023-04-11T15:24:49.622Z,97556.94
2023-04-11T15:27:52.479Z,97542.31
2023-04-11T15:30:56.034Z,97538.66
2023-04-11T15:34:01.770Z,97529.66
2023-04-11T15:37:04.752Z,97525.06
2023-04-11T15:40:10.047Z,97531.88
2023-04-11T15:43:13.398Z,97531.53
2023-04-11T15:46:16.980Z,97528.31
2023-04-11T15:49:20.185Z,97517.41
2023-04-11T15:52:23.438Z,97519.41
2023-04-11T15:55:26.900Z,97515.16
2023-04-11T15:58:30.523Z,97516.59
2023-04-11T16:01:36.904Z,97518.19
2023-04-11T16:04:44.177Z,97524.75
2023-04-11T16:07:49.501Z,97523.69
2023-04-11T16:10:55.471Z,97526.19
2023-04-11T16:13:58.701Z,97513.91
2023-04-11T16:17:01.834Z,97506.59
2023-04-11T16:20:10.164Z,97513.22
2023-04-11T16:23:14.795Z,97518.78
2023-04-11T16:26:17.839Z,97529.38
2023-04-11T16:29:21.328Z,97527.84
2023-04-11T16:32:24.469Z,97521.69
2023-04-11T16:35:27.509Z,97516.41
2023-04-11T16:38:31.508Z,97509.97
2023-04-11T16:41:38.287Z,97514.91
2023-04-11T16:44:41.164Z,97520.53
2023-04-11T16:47:44.188Z,97526.38
2023-04-11T16:50:47.110Z,97534.16
2023-04-11T16:53:50.805Z,97527.03
2023-04-11T16:56:53.683Z,97537.19
2023-04-11T16:59:56.803Z,97529.13
2023-04-11T17:02:59.961Z,97528.72
2023-04-11T17:06:03.706Z,97525.63
2023-04-11T17:09:10.200Z,97514.16
2023-04-11T17:12:13.031Z,97507.47
2023-04-11T17:15:16.198Z,97511.75
2023-04-11T17:18:19.166Z,97510.97
2023-04-11T17:21:22.159Z,97505.22
2023-04-11T17:24:27.635Z,97503.22
2023-04-11T17:27:31.013Z,97508.09
2023-04-11T17:30:34.001Z,97508.91
2023-04-11T17:33:36.928Z,97511.13
2023-04-11T17:36:43.150Z,97518.25
2023-04-11T17:39:46.818Z,97521.75
2023-04-11T17:42:50.299Z,97527.78
2023-04-11T17:45:53.170Z,97520.75
2023-04-11T17:48:56.411Z,97529.84
2023-04-11T17:51:59.799Z,97532.69
2023-04-11T17:55:04.097Z,97541.94
2023-04-11T17:58:07.051Z,97539.25
2023-04-11T18:01:11.731Z,97523.09
2023-04-11T18:04:15.717Z,97523.25
2023-04-11T18:07:18.697Z,97524.09
2023-04-11T18:10:22.442Z,97530.75
2023-04-11T18:13:27.330Z,97541.06
2023-04-11T18:16:32.802Z,97544.44
2023-04-11T18:19:36.123Z,97546.41
2023-04-11T18:22:40.516Z,97554.56
2023-04-11T18:25:43.432Z,97557.63
2023-04-11T18:28:46.203Z,97561.72
2023-04-11T18:31:49.175Z,97551.25
2023-04-11T18:34:54.220Z,97561.03
2023-04-11T18:37:57.279Z,97564.72
2023-04-11T18:41:06.482Z,97577.13
2023-04-11T18:44:12.018Z,97659.50
2023-04-11T18:47:17.340Z,97647.06
2023-04-11T18:50:20.836Z,97642.38
2023-04-11T18:53:24.140Z,97640.41
2023-04-11T18:56:27.623Z,97627.88
2023-04-11T18:59:33.263Z,97625.72
2023-04-11T19:02:38.022Z,97613.53
2023-04-11T19:05:41.371Z,97595.94
2023-04-11T19:08:45.203Z,97576.09
2023-04-11T19:11:48.164Z,97557.66
2023-04-11T19:14:51.132Z,97560.81
2023-04-11T19:17:54.764Z,97564.78
2023-04-11T19:20:58.234Z,97561.50
2023-04-11T19:24:01.119Z,97562.84
2023-04-11T19:27:04.015Z,97569.16
2023-04-11T19:30:08.865Z,97575.78
2023-04-11T19:33:12.095Z,97577.94
2023-04-11T19:36:15.147Z,97569.97
2023-04-11T19:39:18.511Z,97571.09
2023-04-11T19:42:21.647Z,97570.66
2023-04-11T19:45:24.548Z,97563.59
2023-04-11T19:48:27.284Z,97564.09
2023-04-11T19:51:30.188Z,97567.94
2023-04-11T19:54:33.834Z,97564.78
2023-04-11T19:57:39.143Z,97559.00
2023-04-11T20:00:42.271Z,97552.16
2023-04-11T20:03:45.376Z,97557.69
2023-04-11T20:06:51.203Z,97567.28
2023-04-11T20:09:53.992Z,97568.00
2023-04-11T20:12:56.890Z,97581.13
2023-04-11T20:15:59.877Z,97570.72
2023-04-11T20:19:02.855Z,97566.66
2023-04-11T20:22:05.989Z,97560.69
2023-04-11T20:25:11.955Z,97572.78
2023-04-11T20:28:15.084Z,97572.00
2023-04-11T20:31:17.975Z,97573.78
2023-04-11T20:34:21.611Z,97579.97
2023-04-11T20:37:24.264Z,97588.00
2023-04-11T20:40:27.086Z,97579.72
2023-04-11T20:43:30.137Z,97577.97
2023-04-11T20:46:33.142Z,97573.63
2023-04-11T20:49:36.757Z,97581.22
2023-04-11T20:52:41.812Z,97589.72
2023-04-11T20:55:44.478Z,97591.16
2023-04-11T20:58:47.260Z,97585.84
2023-04-11T21:01:50.575Z,97592.56
2023-04-11T21:04:53.745Z,97591.38
2023-04-11T21:07:58.782Z,97596.50
2023-04-11T21:11:02.442Z,97587.13
2023-04-11T21:14:07.761Z,97584.06
2023-04-11T21:17:10.979Z,97583.09
2023-04-11T21:20:20.686Z,97597.56
2023-04-11T21:23:23.587Z,97591.22
2023-04-11T21:26:26.636Z,97595.03
2023-04-11T21:29:29.671Z,97611.44
2023-04-11T21:32:33.140Z,97619.34
2023-04-11T21:35:36.072Z,97597.88
2023-04-11T21:38:38.818Z,97621.28
2023-04-11T21:41:41.999Z,97608.06
2023-04-11T21:44:44.725Z,97612.44
2023-04-11T21:47:47.685Z,97611.66
2023-04-11T21:50:50.953Z,97604.09
2023-04-11T21:53:53.746Z,97606.22
2023-04-11T21:56:57.711Z,97607.44
2023-04-11T22:00:01.047Z,97607.44
2023-04-11T22:03:04.119Z,97606.72
2023-04-11T22:06:07.689Z,97619.56
2023-04-11T22:09:10.549Z,97614.50
2023-04-11T22:12:17.725Z,97619.69
2023-04-11T22:15:20.233Z,97611.44
2023-04-11T22:18:27.242Z,97608.72
2023-04-11T22:21:32.279Z,97605.31
2023-04-11T22:24:34.829Z,97607.19
2023-04-11T22:27:38.828Z,97598.66
2023-04-11T22:30:41.827Z,97612.25
2023-04-11T22:33:44.514Z,97614.97
2023-04-11T22:36:47.126Z,97607.19
2023-04-11T22:39:50.200Z,97603.66
2023-04-11T22:42:53.363Z,97599.88
2023-04-11T22:45:57.477Z,97602.00
2023-04-11T22:49:00.602Z,97601.06
2023-04-11T22:52:03.330Z,97598.72
2023-04-11T22:55:11.601Z,97586.66
2023-04-11T22:58:14.265Z,97591.41
2023-04-11T23:01:17.928Z,97583.84
2023-04-11T23:04:21.551Z,97583.03
2023-04-11T23:07:27.473Z,97592.34
2023-04-11T23:10:30.236Z,97590.09
2023-04-11T23:13:33.208Z,97585.84
2023-04-11T23:16:35.921Z,97580.75
2023-04-11T23:19:39.333Z,97578.66
2023-04-11T23:22:42.886Z,97588.59
2023-04-11T23:25:45.750Z,97598.75
2023-04-11T23:28:48.807Z,97601.81
2023-04-11T23:31:51.895Z,97597.56
2023-04-11T23:34:54.775Z,97594.97
2023-04-11T23:37:58.134Z,97585.19
2023-04-11T23:41:01.093Z,97587.44
2023-04-11T23:44:03.810Z,97577.03
2023-04-11T23:47:06.562Z,97576.56
2023-04-11T23:50:10.195Z,97580.34
2023-04-11T23:53:12.828Z,97580.81
2023-04-11T23:56:15.552Z,97577.72
2023-04-11T23:59:18.298Z,97576.56
